createdAt,value
2017-09-01T00:00:05.477Z,98054.72
2017-09-01T00:00:37.110Z,98056.88
2017-09-01T00:01:08.758Z,98055.61
2017-09-01T00:01:40.392Z,98059.88
2017-09-01T00:02:12.039Z,98058.59
2017-09-01T00:02:43.667Z,98061.58
2017-09-01T00:03:15.331Z,98051.78
2017-09-01T00:03:46.915Z,98055.20
2017-09-01T00:04:18.598Z,98049.66
2017-09-01T00:04:50.240Z,98046.26
2017-09-01T00:05:21.995Z,98044.97
2017-09-01T00:05:53.894Z,98042.41
2017-09-01T00:06:25.491Z,98044.13
2017-09-01T00:06:57.131Z,98040.75
2017-09-01T00:07:28.870Z,98032.19
2017-09-01T00:08:00.445Z,98036.48
2017-09-01T00:08:32.051Z,98039.05
2017-09-01T00:09:03.699Z,98035.20
2017-09-01T00:09:35.271Z,98032.66
2017-09-01T00:10:06.971Z,98031.80
2017-09-01T00:10:39.179Z,98033.93
2017-09-01T00:11:10.977Z,98033.08
2017-09-01T00:11:42.813Z,98031.80
2017-09-01T00:12:14.402Z,98025.83
2017-09-01T00:12:46.111Z,98027.11
2017-09-01T00:13:17.853Z,98022.44
2017-09-01T00:13:49.689Z,98019.87
2017-09-01T00:14:21.290Z,98017.73
2017-09-01T00:14:52.980Z,98020.30
2017-09-01T00:15:24.623Z,98017.73
2017-09-01T00:15:56.267Z,98011.78
2017-09-01T00:16:27.900Z,98014.34
2017-09-01T00:16:59.485Z,98010.92
2017-09-01T00:17:31.191Z,98007.13
2017-09-01T00:18:03.000Z,98007.13
2017-09-01T00:18:34.771Z,98009.27
2017-09-01T00:19:06.432Z,98007.56
2017-09-01T00:19:38.091Z,98005.86
2017-09-01T00:20:09.693Z,98004.16
2017-09-01T00:20:41.648Z,98005.44
2017-09-01T00:21:13.321Z,98006.71
2017-09-01T00:21:45.044Z,98011.83
2017-09-01T00:22:16.639Z,98003.73
2017-09-01T00:22:48.532Z,98002.45
2017-09-01T00:23:20.208Z,98005.45
2017-09-01T00:23:51.920Z,97999.91
2017-09-01T00:24:23.755Z,98001.63
2017-09-01T00:24:55.408Z,98005.45
2017-09-01T00:25:27.036Z,98003.79
2017-09-01T00:25:58.642Z,98008.02
2017-09-01T00:26:30.349Z,98005.88
2017-09-01T00:27:01.970Z,98008.91
2017-09-01T00:27:33.632Z,98008.06
2017-09-01T00:28:05.217Z,98011.47
2017-09-01T00:28:37.207Z,98011.47
2017-09-01T00:29:08.860Z,98016.98
2017-09-01T00:29:40.431Z,98015.69
2017-09-01T00:30:12.130Z,98015.19
2017-09-01T00:30:43.758Z,98016.08
2017-09-01T00:31:15.420Z,98024.56
2017-09-01T00:31:47.061Z,98018.15
2017-09-01T00:32:18.684Z,98019.36
2017-09-01T00:32:50.340Z,98023.14
2017-09-01T00:33:21.980Z,98025.26
2017-09-01T00:33:53.731Z,98023.11
2017-09-01T00:34:25.582Z,98022.20
2017-09-01T00:34:57.210Z,98028.97
2017-09-01T00:35:28.873Z,98033.66
2017-09-01T00:36:00.492Z,98033.23
2017-09-01T00:36:32.125Z,98026.82
2017-09-01T00:37:03.785Z,98031.09
2017-09-01T00:37:35.418Z,98039.61
2017-09-01T00:38:06.989Z,98037.05
2017-09-01T00:38:38.693Z,98034.48
2017-09-01T00:39:10.347Z,98037.05
2017-09-01T00:39:41.978Z,98037.48
2017-09-01T00:40:13.657Z,98036.61
2017-09-01T00:40:45.231Z,98039.19
2017-09-01T00:41:17.026Z,98042.59
2017-09-01T00:41:48.855Z,98037.47
2017-09-01T00:42:20.508Z,98040.03
2017-09-01T00:42:52.258Z,98041.73
2017-09-01T00:43:24.105Z,98041.73
2017-09-01T00:43:55.748Z,98040.47
2017-09-01T00:44:27.684Z,98037.92
2017-09-01T00:44:59.263Z,98045.59
2017-09-01T00:45:30.976Z,98042.61
2017-09-01T00:46:02.543Z,98042.17
2017-09-01T00:46:34.264Z,98046.02
2017-09-01T00:47:05.900Z,98037.06
2017-09-01T00:47:37.532Z,98038.35
2017-09-01T00:48:09.184Z,98040.05
2017-09-01T00:48:41.099Z,98043.03
2017-09-01T00:49:12.780Z,98040.90
2017-09-01T00:49:44.535Z,98037.49
2017-09-01T00:50:16.472Z,98038.82
2017-09-01T00:50:48.329Z,98038.35
2017-09-01T00:51:19.947Z,98039.67
2017-09-01T00:51:51.525Z,98037.07
2017-09-01T00:52:23.230Z,98033.70
2017-09-01T00:52:54.817Z,98037.93
2017-09-01T00:53:26.633Z,98032.42
2017-09-01T00:53:58.483Z,98038.39
2017-09-01T00:54:30.112Z,98038.39
2017-09-01T00:55:01.992Z,98037.12
2017-09-01T00:55:33.708Z,98035.37
2017-09-01T00:56:05.352Z,98031.16
2017-09-01T00:56:36.996Z,98035.02
2017-09-01T00:57:08.575Z,98041.46
2017-09-01T00:57:40.133Z,98037.22
2017-09-01T00:58:11.719Z,98034.73
2017-09-01T00:58:43.560Z,98042.42
2017-09-01T00:59:15.194Z,98038.22
2017-09-01T00:59:46.776Z,98034.86
2017-09-01T01:00:18.383Z,98036.58
2017-09-01T01:00:50.141Z,98039.56
2017-09-01T01:01:21.722Z,98035.30
2017-09-01T01:01:53.417Z,98040.41
2017-09-01T01:02:25.054Z,98037.86
2017-09-01T01:02:56.652Z,98038.28
2017-09-01T01:03:28.320Z,98035.72
2017-09-01T01:03:59.987Z,98031.90
2017-09-01T01:04:31.610Z,98031.52
2017-09-01T01:05:03.267Z,98037.07
2017-09-01T01:05:35.009Z,98037.07
2017-09-01T01:06:06.874Z,98024.27
2017-09-01T01:06:38.482Z,98027.28
2017-09-01T01:07:10.119Z,98027.28
2017-09-01T01:07:41.708Z,98029.42
2017-09-01T01:08:13.414Z,98023.92
2017-09-01T01:08:45.049Z,98027.34
2017-09-01T01:09:16.694Z,98023.50
2017-09-01T01:09:48.355Z,98019.67
2017-09-01T01:10:19.939Z,98029.53
2017-09-01T01:10:51.623Z,98026.92
2017-09-01T01:11:23.275Z,98027.36
2017-09-01T01:11:54.950Z,98027.83
2017-09-01T01:12:26.544Z,98025.27
2017-09-01T01:12:58.118Z,98023.98
2017-09-01T01:13:29.831Z,98025.27
2017-09-01T01:14:01.429Z,98023.14
2017-09-01T01:14:33.129Z,98020.59
2017-09-01T01:15:04.763Z,98021.44
2017-09-01T01:15:36.342Z,98018.05
2017-09-01T01:16:08.047Z,98021.08
2017-09-01T01:16:39.693Z,98014.63
2017-09-01T01:17:11.342Z,98017.63
2017-09-01T01:17:42.969Z,98017.67
2017-09-01T01:18:14.619Z,98016.81
2017-09-01T01:18:46.253Z,98018.52
2017-09-01T01:19:17.908Z,98021.86
2017-09-01T01:19:49.488Z,98021.42
2017-09-01T01:20:21.290Z,98019.29
2017-09-01T01:20:52.990Z,98026.50
2017-09-01T01:21:24.769Z,98018.45
2017-09-01T01:21:56.423Z,98023.13
2017-09-01T01:22:28.056Z,98027.34
2017-09-01T01:22:59.630Z,98028.14
2017-09-01T01:23:31.356Z,98023.42
2017-09-01T01:24:02.986Z,98021.28
2017-09-01T01:24:34.636Z,98027.63
2017-09-01T01:25:06.209Z,98025.48
2017-09-01T01:25:37.912Z,98019.87
2017-09-01T01:26:09.542Z,98021.14
2017-09-01T01:26:41.210Z,98015.60
2017-09-01T01:27:12.814Z,98019.44
2017-09-01T01:27:44.500Z,98013.05
2017-09-01T01:28:16.104Z,98012.63
2017-09-01T01:28:47.766Z,98016.09
2017-09-01T01:29:19.412Z,98010.56
2017-09-01T01:29:51.049Z,98011.00
2017-09-01T01:30:22.702Z,98011.05
2017-09-01T01:30:54.332Z,98012.33
2017-09-01T01:31:25.987Z,98010.65
2017-09-01T01:31:57.912Z,98014.48
2017-09-01T01:32:29.578Z,98006.01
2017-09-01T01:33:01.206Z,98013.69
2017-09-01T01:33:32.838Z,98012.41
2017-09-01T01:34:04.487Z,98014.98
2017-09-01T01:34:36.236Z,98017.55
2017-09-01T01:35:08.076Z,98018.38
2017-09-01T01:35:39.656Z,98015.38
2017-09-01T01:36:11.632Z,98019.60
2017-09-01T01:36:43.318Z,98017.47
2017-09-01T01:37:15.108Z,98011.92
2017-09-01T01:37:46.910Z,98020.45
2017-09-01T01:38:18.508Z,98015.83
2017-09-01T01:38:50.292Z,98022.66
2017-09-01T01:39:21.969Z,98018.41
2017-09-01T01:39:53.788Z,98010.28
2017-09-01T01:40:25.429Z,98016.68
2017-09-01T01:40:57.053Z,98017.13
2017-09-01T01:41:28.695Z,98023.52
2017-09-01T01:42:00.265Z,98019.30
2017-09-01T01:42:31.986Z,98023.58
2017-09-01T01:43:03.641Z,98018.05
2017-09-01T01:43:35.239Z,98019.80
2017-09-01T01:44:06.905Z,98020.24
2017-09-01T01:44:38.485Z,98016.41
2017-09-01T01:45:10.183Z,98015.11
2017-09-01T01:45:41.950Z,98017.18
2017-09-01T01:46:13.804Z,98017.95
2017-09-01T01:46:45.380Z,98016.19
2017-09-01T01:47:17.067Z,98016.68
2017-09-01T01:47:48.957Z,98014.19
2017-09-01T01:48:20.942Z,98013.86
2017-09-01T01:48:52.514Z,98014.90
2017-09-01T01:49:24.244Z,98010.01
2017-09-01T01:49:55.879Z,98022.18
2017-09-01T01:50:27.566Z,98011.16
2017-09-01T01:50:59.170Z,98017.50
2017-09-01T01:51:30.747Z,98025.58
2017-09-01T01:52:02.469Z,98024.66
2017-09-01T01:52:34.059Z,98023.80
2017-09-01T01:53:05.730Z,98023.74
2017-09-01T01:53:37.400Z,98026.71
2017-09-01T01:54:09.136Z,98023.25
2017-09-01T01:54:40.987Z,98021.53
2017-09-01T01:55:12.606Z,98020.67
2017-09-01T01:55:44.270Z,98021.52
2017-09-01T01:56:16.454Z,98030.04
2017-09-01T01:56:48.150Z,98028.72
2017-09-01T01:57:19.818Z,98029.55
2017-09-01T01:57:51.438Z,98026.52
2017-09-01T01:58:23.091Z,98026.45
2017-09-01T01:58:54.655Z,98029.43
2017-09-01T01:59:26.483Z,98026.44
2017-09-01T01:59:58.331Z,98027.70
2017-09-01T02:00:29.958Z,98025.99
2017-09-01T02:01:01.532Z,98025.15
2017-09-01T02:01:33.121Z,98026.41
2017-09-01T02:02:04.698Z,98016.19
2017-09-01T02:02:36.284Z,98023.86
2017-09-01T02:03:07.971Z,98020.02
2017-09-01T02:03:39.617Z,98016.19
2017-09-01T02:04:11.211Z,98021.73
2017-09-01T02:04:42.793Z,98014.92
2017-09-01T02:05:14.370Z,98021.74
2017-09-01T02:05:45.925Z,98015.36
2017-09-01T02:06:17.712Z,98014.50
2017-09-01T02:06:49.463Z,98014.94
2017-09-01T02:07:21.048Z,98016.69
2017-09-01T02:07:52.761Z,98013.70
2017-09-01T02:08:24.596Z,98013.70
2017-09-01T02:08:56.209Z,98009.03
2017-09-01T02:09:27.886Z,98009.03
2017-09-01T02:09:59.453Z,98012.45
2017-09-01T02:10:31.025Z,98011.16
2017-09-01T02:11:02.800Z,98005.23
2017-09-01T02:11:34.449Z,98009.93
2017-09-01T02:12:06.072Z,98000.55
2017-09-01T02:12:37.745Z,97996.30
2017-09-01T02:13:09.368Z,97993.75
2017-09-01T02:13:41.113Z,98001.86
2017-09-01T02:14:12.930Z,97998.88
2017-09-01T02:14:44.585Z,98001.05
2017-09-01T02:15:16.236Z,97996.78
2017-09-01T02:15:47.874Z,97997.64
2017-09-01T02:16:19.526Z,97993.39
2017-09-01T02:16:51.165Z,97994.25
2017-09-01T02:17:22.793Z,97997.23
2017-09-01T02:17:54.466Z,97998.09
2017-09-01T02:18:26.054Z,97999.78
2017-09-01T02:18:57.741Z,97992.12
2017-09-01T02:19:29.641Z,97995.11
2017-09-01T02:20:01.204Z,97996.38
2017-09-01T02:20:32.970Z,97998.09
2017-09-01T02:21:04.616Z,98001.05
2017-09-01T02:21:36.239Z,98003.63
2017-09-01T02:22:07.885Z,97999.77
2017-09-01T02:22:39.539Z,98001.06
2017-09-01T02:23:11.180Z,98001.06
2017-09-01T02:23:42.806Z,97999.80
2017-09-01T02:24:14.459Z,97999.36
2017-09-01T02:24:46.239Z,97999.36
2017-09-01T02:25:18.049Z,98004.91
2017-09-01T02:25:49.634Z,97998.14
2017-09-01T02:26:21.216Z,98003.26
2017-09-01T02:26:52.993Z,98004.11
2017-09-01T02:27:24.596Z,98006.25
2017-09-01T02:27:56.196Z,98010.52
2017-09-01T02:28:27.917Z,98008.81
2017-09-01T02:28:59.836Z,98014.80
2017-09-01T02:29:31.490Z,98010.11
2017-09-01T02:30:03.140Z,98010.11
2017-09-01T02:30:34.780Z,98010.95
2017-09-01T02:31:06.438Z,98013.44
2017-09-01T02:31:38.063Z,98005.68
2017-09-01T02:32:09.704Z,98006.83
2017-09-01T02:32:43.937Z,98010.98
2017-09-01T02:33:21.726Z,98009.78
2017-09-01T02:33:53.562Z,98012.73
2017-09-01T02:34:25.182Z,98006.63
2017-09-01T02:35:05.232Z,98009.06
2017-09-01T02:35:55.310Z,98004.55
2017-09-01T02:36:28.078Z,98016.03
2017-09-01T02:36:59.716Z,98019.63
2017-09-01T02:37:31.353Z,98018.84
2017-09-01T02:38:02.990Z,98021.81
2017-09-01T02:38:41.207Z,98021.28
2017-09-01T02:39:13.233Z,98029.72
2017-09-01T02:39:46.558Z,98022.78
2017-09-01T02:41:06.022Z,98028.50
2017-09-01T02:41:37.579Z,98025.86
2017-09-01T02:42:09.381Z,98029.19
2017-09-01T02:42:40.962Z,98027.80
2017-09-01T02:43:13.028Z,98026.75
2017-09-01T02:43:47.481Z,98025.20
2017-09-01T02:45:25.742Z,98033.38
2017-09-01T02:45:57.363Z,98027.78
2017-09-01T02:46:29.056Z,98024.80
2017-09-01T02:47:00.941Z,98036.73
2017-09-01T02:47:32.546Z,98028.20
2017-09-01T02:48:04.266Z,98033.23
2017-09-01T02:48:35.832Z,98035.95
2017-09-01T02:49:07.502Z,98033.17
2017-09-01T02:49:39.118Z,98034.87
2017-09-01T02:50:10.687Z,98031.48
2017-09-01T02:50:42.405Z,98031.06
2017-09-01T02:51:13.982Z,98029.85
2017-09-01T02:51:45.701Z,98037.16
2017-09-01T02:52:17.310Z,98033.39
2017-09-01T02:52:48.880Z,98030.85
2017-09-01T02:53:20.603Z,98030.05
2017-09-01T02:53:52.248Z,98023.30
2017-09-01T02:54:23.881Z,98027.99
2017-09-01T02:54:55.514Z,98026.34
2017-09-01T02:55:27.171Z,98019.55
2017-09-01T02:55:58.781Z,98027.66
2017-09-01T02:56:30.456Z,98023.44
2017-09-01T02:57:02.090Z,98024.73
2017-09-01T02:57:33.737Z,98021.75
2017-09-01T02:58:05.367Z,98023.50
2017-09-01T02:58:37.023Z,98022.62
2017-09-01T02:59:08.653Z,98021.80
2017-09-01T02:59:40.227Z,98021.39
2017-09-01T03:00:11.950Z,98018.41
2017-09-01T03:00:43.579Z,98014.20
2017-09-01T03:01:15.542Z,98013.34
2017-09-01T03:01:47.153Z,98012.93
2017-09-01T03:02:18.838Z,98008.67
2017-09-01T03:02:50.462Z,98014.22
2017-09-01T03:03:22.094Z,98017.20
2017-09-01T03:03:53.742Z,98018.05
2017-09-01T03:04:25.302Z,98018.48
2017-09-01T03:04:56.890Z,98014.23
2017-09-01T03:05:28.477Z,98016.36
2017-09-01T03:06:00.424Z,98022.76
2017-09-01T03:06:32.028Z,98022.32
2017-09-01T03:07:03.903Z,98021.09
2017-09-01T03:07:35.490Z,98021.09
2017-09-01T03:08:07.203Z,98021.09
2017-09-01T03:08:38.837Z,98019.39
2017-09-01T03:09:10.498Z,98027.49
2017-09-01T03:09:42.139Z,98026.23
2017-09-01T03:10:13.709Z,98026.21
2017-09-01T03:10:45.401Z,98024.08
2017-09-01T03:11:17.064Z,98025.37
2017-09-01T03:11:49.000Z,98028.34
2017-09-01T03:12:20.628Z,98024.95
2017-09-01T03:12:52.301Z,98030.06
2017-09-01T03:13:24.025Z,98031.77
2017-09-01T03:13:55.611Z,98027.08
2017-09-01T03:14:27.307Z,98027.09
2017-09-01T03:14:59.020Z,98039.02
2017-09-01T03:15:30.801Z,98034.75
2017-09-01T03:16:02.382Z,98035.65
2017-09-01T03:16:34.088Z,98036.11
2017-09-01T03:17:05.720Z,98044.18
2017-09-01T03:17:37.299Z,98042.44
2017-09-01T03:18:09.006Z,98040.36
2017-09-01T03:18:40.652Z,98040.78
2017-09-01T03:19:12.291Z,98043.76
2017-09-01T03:19:43.917Z,98044.18
2017-09-01T03:20:15.486Z,98043.34
2017-09-01T03:20:47.053Z,98040.36
2017-09-01T03:21:18.868Z,98038.66
2017-09-01T03:21:50.498Z,98040.36
2017-09-01T03:22:22.414Z,98036.13
2017-09-01T03:22:54.072Z,98042.48
2017-09-01T03:23:25.745Z,98031.45
2017-09-01T03:23:57.371Z,98030.98
2017-09-01T03:24:29.036Z,98034.83
2017-09-01T03:25:00.622Z,98032.69
2017-09-01T03:25:32.286Z,98031.86
2017-09-01T03:26:03.954Z,98033.56
2017-09-01T03:26:35.602Z,98035.69
2017-09-01T03:27:07.251Z,98031.45
2017-09-01T03:27:38.829Z,98034.41
2017-09-01T03:28:10.502Z,98035.70
2017-09-01T03:28:42.103Z,98038.25
2017-09-01T03:29:13.755Z,98030.16
2017-09-01T03:29:45.413Z,98041.23
2017-09-01T03:30:17.006Z,98041.23
2017-09-01T03:30:48.696Z,98038.69
2017-09-01T03:31:20.362Z,98044.22
2017-09-01T03:31:52.012Z,98045.92
2017-09-01T03:32:23.645Z,98046.36
2017-09-01T03:32:55.395Z,98049.77
2017-09-01T03:33:27.217Z,98045.09
2017-09-01T03:33:58.978Z,98049.77
2017-09-01T03:34:30.833Z,98045.08
2017-09-01T03:35:02.407Z,98050.64
2017-09-01T03:35:34.215Z,98041.69
2017-09-01T03:36:06.001Z,98045.52
2017-09-01T03:36:37.714Z,98045.09
2017-09-01T03:37:09.343Z,98043.39
2017-09-01T03:37:40.936Z,98050.64
2017-09-01T03:38:12.608Z,98044.66
2017-09-01T03:38:44.273Z,98043.81
2017-09-01T03:39:15.863Z,98043.81
2017-09-01T03:39:47.559Z,98044.70
2017-09-01T03:40:19.178Z,98046.38
2017-09-01T03:40:50.853Z,98048.13
2017-09-01T03:41:22.425Z,98049.40
2017-09-01T03:41:54.127Z,98052.81
2017-09-01T03:42:25.762Z,98050.67
2017-09-01T03:42:57.384Z,98053.24
2017-09-01T03:43:29.333Z,98049.82
2017-09-01T03:44:00.896Z,98054.09
2017-09-01T03:44:32.662Z,98057.50
2017-09-01T03:45:04.378Z,98047.28
2017-09-01T03:45:36.219Z,98054.09
2017-09-01T03:46:07.882Z,98048.13
2017-09-01T03:46:39.500Z,98049.43
2017-09-01T03:47:11.167Z,98051.13
2017-09-01T03:47:42.746Z,98045.58
2017-09-01T03:48:14.425Z,98045.59
2017-09-01T03:48:46.037Z,98045.58
2017-09-01T03:49:17.729Z,98043.46
2017-09-01T03:49:49.386Z,98041.76
2017-09-01T03:50:21.007Z,98042.67
2017-09-01T03:50:52.583Z,98046.88
2017-09-01T03:51:24.318Z,98038.39
2017-09-01T03:51:55.973Z,98037.97
2017-09-01T03:52:27.679Z,98034.14
2017-09-01T03:52:59.514Z,98034.55
2017-09-01T03:53:31.155Z,98029.88
2017-09-01T03:54:02.932Z,98027.73
2017-09-01T03:54:34.755Z,98028.17
2017-09-01T03:55:06.675Z,98027.75
2017-09-01T03:55:38.338Z,98026.52
2017-09-01T03:56:09.994Z,98025.19
2017-09-01T03:56:41.902Z,98022.21
2017-09-01T03:57:13.578Z,98029.02
2017-09-01T03:57:45.151Z,98028.59
2017-09-01T03:58:16.726Z,98029.88
2017-09-01T03:58:48.499Z,98037.97
2017-09-01T03:59:20.134Z,98025.63
2017-09-01T03:59:51.711Z,98032.02
2017-09-01T04:00:23.432Z,98032.44
2017-09-01T04:00:55.068Z,98036.70
2017-09-01T04:01:26.701Z,98038.84
2017-09-01T04:01:58.340Z,98037.98
2017-09-01T04:02:29.978Z,98041.39
2017-09-01T04:03:01.571Z,98043.09
2017-09-01T04:03:33.303Z,98043.52
2017-09-01T04:04:04.919Z,98043.95
2017-09-01T04:04:36.578Z,98046.52
2017-09-01T04:05:08.157Z,98041.86
2017-09-01T04:05:39.850Z,98042.72
2017-09-01T04:06:11.479Z,98043.58
2017-09-01T04:06:43.136Z,98044.85
2017-09-01T04:07:14.768Z,98043.15
2017-09-01T04:07:46.406Z,98046.13
2017-09-01T04:08:17.988Z,98039.30
2017-09-01T04:08:49.801Z,98035.91
2017-09-01T04:09:21.374Z,98039.73
2017-09-01T04:09:52.985Z,98035.48
2017-09-01T04:10:24.580Z,98035.48
2017-09-01T04:10:56.365Z,98037.19
2017-09-01T04:11:27.966Z,98033.77
2017-09-01T04:11:59.549Z,98033.36
2017-09-01T04:12:31.138Z,98035.06
2017-09-01T04:13:02.936Z,98027.81
2017-09-01T04:13:34.506Z,98027.39
2017-09-01T04:14:06.084Z,98031.66
2017-09-01T04:14:37.654Z,98032.08
2017-09-01T04:15:09.250Z,98027.39
2017-09-01T04:15:40.863Z,98026.12
2017-09-01T04:16:12.438Z,98023.99
2017-09-01T04:16:44.121Z,98021.86
2017-09-01T04:17:15.691Z,98021.05
2017-09-01T04:17:47.260Z,98021.44
2017-09-01T04:18:18.854Z,98029.11
2017-09-01T04:18:50.431Z,98019.34
2017-09-01T04:19:22.020Z,98028.30
2017-09-01T04:19:53.984Z,98021.05
2017-09-01T04:20:25.811Z,98024.88
2017-09-01T04:20:57.464Z,98026.55
2017-09-01T04:21:29.111Z,98027.03
2017-09-01T04:22:00.745Z,98017.22
2017-09-01T04:22:32.411Z,98024.47
2017-09-01T04:23:05.131Z,98024.89
2017-09-01T04:23:36.820Z,98020.20
2017-09-01T04:24:08.552Z,98017.66
2017-09-01T04:24:40.193Z,98019.78
2017-09-01T04:25:11.841Z,98015.53
2017-09-01T04:25:43.580Z,98013.39
2017-09-01T04:26:15.147Z,98018.08
2017-09-01T04:26:46.855Z,98018.08
2017-09-01T04:27:18.548Z,98014.67
2017-09-01T04:27:50.342Z,98012.12
2017-09-01T04:28:22.008Z,98014.66
2017-09-01T04:28:53.626Z,98014.25
2017-09-01T04:29:25.281Z,98013.41
2017-09-01T04:29:56.872Z,98010.42
2017-09-01T04:30:28.632Z,98012.98
2017-09-01T04:31:00.251Z,98016.81
2017-09-01T04:31:31.843Z,98011.70
2017-09-01T04:32:03.748Z,98012.13
2017-09-01T04:32:35.408Z,98020.22
2017-09-01T04:33:07.058Z,98016.38
2017-09-01T04:33:38.723Z,98018.09
2017-09-01T04:34:10.382Z,98025.76
2017-09-01T04:34:42.004Z,98021.93
2017-09-01T04:35:13.643Z,98023.67
2017-09-01T04:35:45.212Z,98029.21
2017-09-01T04:36:16.994Z,98027.47
2017-09-01T04:36:48.853Z,98031.78
2017-09-01T04:37:20.515Z,98027.52
2017-09-01T04:37:52.162Z,98039.02
2017-09-01T04:38:23.788Z,98033.91
2017-09-01T04:38:55.450Z,98040.73
2017-09-01T04:39:27.079Z,98039.45
2017-09-01T04:39:58.734Z,98043.71
2017-09-01T04:40:30.351Z,98038.59
2017-09-01T04:41:01.995Z,98034.77
2017-09-01T04:41:33.652Z,98037.31
2017-09-01T04:42:05.298Z,98036.89
2017-09-01T04:42:36.915Z,98038.19
2017-09-01T04:43:08.585Z,98039.02
2017-09-01T04:43:40.211Z,98038.61
2017-09-01T04:44:11.853Z,98039.88
2017-09-01T04:44:43.448Z,98046.27
2017-09-01T04:45:15.216Z,98042.44
2017-09-01T04:45:46.920Z,98043.72
2017-09-01T04:46:18.714Z,98047.13
2017-09-01T04:46:50.393Z,98038.19
2017-09-01T04:47:22.031Z,98043.73
2017-09-01T04:47:53.763Z,98039.88
2017-09-01T04:48:25.342Z,98044.15
2017-09-01T04:48:57.043Z,98043.30
2017-09-01T04:49:28.732Z,98047.56
2017-09-01T04:50:00.525Z,98048.03
2017-09-01T04:50:32.096Z,98046.28
2017-09-01T04:51:03.918Z,98044.19
2017-09-01T04:51:35.624Z,98050.97
2017-09-01T04:52:07.511Z,98048.88
2017-09-01T04:52:39.459Z,98042.02
2017-09-01T04:53:11.251Z,98047.14
2017-09-01T04:53:43.050Z,98046.75
2017-09-01T04:54:14.716Z,98047.56
2017-09-01T04:54:46.572Z,98044.63
2017-09-01T04:55:18.151Z,98035.67
2017-09-01T04:55:49.810Z,98038.23
2017-09-01T04:56:21.458Z,98039.52
2017-09-01T04:56:53.085Z,98045.91
2017-09-01T04:57:24.734Z,98039.94
2017-09-01T04:57:56.401Z,98038.23
2017-09-01T04:58:28.237Z,98045.05
2017-09-01T04:58:59.920Z,98034.83
2017-09-01T04:59:31.609Z,98033.12
2017-09-01T05:00:03.371Z,98038.24
2017-09-01T05:00:35.196Z,98039.09
2017-09-01T05:01:06.857Z,98037.81
2017-09-01T05:01:38.492Z,98041.64
2017-09-01T05:02:10.150Z,98043.34
2017-09-01T05:02:41.803Z,98041.66
2017-09-01T05:03:13.378Z,98046.34
2017-09-01T05:03:45.045Z,98048.03
2017-09-01T05:04:16.636Z,98043.78
2017-09-01T05:04:48.348Z,98041.22
2017-09-01T05:05:19.988Z,98045.49
2017-09-01T05:05:51.644Z,98045.91
2017-09-01T05:06:23.270Z,98045.49
2017-09-01T05:06:54.879Z,98042.08
2017-09-01T05:07:26.557Z,98045.49
2017-09-01T05:07:58.305Z,98047.20
2017-09-01T05:08:30.129Z,98045.06
2017-09-01T05:09:01.777Z,98046.77
2017-09-01T05:09:33.436Z,98039.11
2017-09-01T05:10:05.028Z,98048.48
2017-09-01T05:10:36.742Z,98046.36
2017-09-01T05:11:08.359Z,98057.00
2017-09-01T05:11:39.994Z,98053.64
2017-09-01T05:12:11.655Z,98056.58
2017-09-01T05:12:43.266Z,98060.02
2017-09-01T05:13:14.919Z,98057.47
2017-09-01T05:13:46.593Z,98054.92
2017-09-01T05:14:18.208Z,98065.15
2017-09-01T05:14:49.811Z,98064.30
2017-09-01T05:15:21.508Z,98065.15
2017-09-01T05:15:53.148Z,98066.85
2017-09-01T05:16:25.049Z,98070.70
2017-09-01T05:16:56.732Z,98060.46
2017-09-01T05:17:28.472Z,98065.58
2017-09-01T05:18:00.341Z,98072.39
2017-09-01T05:18:32.274Z,98063.88
2017-09-01T05:19:03.920Z,98064.30
2017-09-01T05:19:35.562Z,98066.00
2017-09-01T05:20:07.231Z,98065.58
2017-09-01T05:20:39.108Z,98066.00
2017-09-01T05:21:10.784Z,98066.00
2017-09-01T05:21:42.406Z,98068.14
2017-09-01T05:22:14.347Z,98064.73
2017-09-01T05:22:45.955Z,98068.14
2017-09-01T05:23:17.679Z,98061.75
2017-09-01T05:23:49.378Z,98061.75
2017-09-01T05:24:21.224Z,98062.61
2017-09-01T05:24:52.803Z,98065.59
2017-09-01T05:25:24.534Z,98069.00
2017-09-01T05:25:56.200Z,98068.15
2017-09-01T05:26:27.814Z,98067.34
2017-09-01T05:26:59.405Z,98063.47
2017-09-01T05:27:30.961Z,98069.42
2017-09-01T05:28:02.725Z,98069.86
2017-09-01T05:28:34.372Z,98071.14
2017-09-01T05:29:06.032Z,98062.19
2017-09-01T05:29:37.685Z,98065.17
2017-09-01T05:30:09.339Z,98066.91
2017-09-01T05:30:41.052Z,98066.48
2017-09-01T05:31:12.644Z,98073.30
2017-09-01T05:31:44.257Z,98071.59
2017-09-01T05:32:15.882Z,98071.59
2017-09-01T05:32:47.624Z,98078.00
2017-09-01T05:33:19.481Z,98075.44
2017-09-01T05:33:51.097Z,98075.87
2017-09-01T05:34:22.767Z,98075.02
2017-09-01T05:34:54.393Z,98071.61
2017-09-01T05:35:26.023Z,98072.45
2017-09-01T05:35:57.678Z,98067.77
2017-09-01T05:36:29.313Z,98071.19
2017-09-01T05:37:00.892Z,98071.61
2017-09-01T05:37:32.599Z,98073.75
2017-09-01T05:38:04.268Z,98075.87
2017-09-01T05:38:35.989Z,98078.00
2017-09-01T05:39:07.855Z,98079.70
2017-09-01T05:39:39.582Z,98078.86
2017-09-01T05:40:11.411Z,98075.45
2017-09-01T05:40:42.987Z,98075.88
2017-09-01T05:41:14.736Z,98075.45
2017-09-01T05:41:46.334Z,98073.32
2017-09-01T05:42:17.951Z,98076.72
2017-09-01T05:42:49.635Z,98078.00
2017-09-01T05:43:21.293Z,98073.31
2017-09-01T05:43:52.863Z,98081.84
2017-09-01T05:44:24.665Z,98078.01
2017-09-01T05:44:56.557Z,98079.71
2017-09-01T05:45:28.258Z,98079.71
2017-09-01T05:46:00.085Z,98085.25
2017-09-01T05:46:31.731Z,98080.56
2017-09-01T05:47:03.422Z,98078.86
2017-09-01T05:47:35.031Z,98079.33
2017-09-01T05:48:06.772Z,98078.01
2017-09-01T05:48:38.366Z,98083.55
2017-09-01T05:49:10.056Z,98083.98
2017-09-01T05:49:41.653Z,98087.38
2017-09-01T05:50:13.462Z,98084.41
2017-09-01T05:50:45.188Z,98082.28
2017-09-01T05:51:17.110Z,98083.98
2017-09-01T05:51:48.788Z,98080.98
2017-09-01T05:52:20.409Z,98086.11
2017-09-01T05:52:52.054Z,98083.98
2017-09-01T05:53:23.717Z,98083.13
2017-09-01T05:53:55.308Z,98080.19
2017-09-01T05:54:26.970Z,98083.98
2017-09-01T05:54:58.627Z,98078.91
2017-09-01T05:55:30.562Z,98077.20
2017-09-01T05:56:02.205Z,98084.45
2017-09-01T05:56:33.871Z,98086.16
2017-09-01T05:57:05.441Z,98084.02
2017-09-01T05:57:37.247Z,98082.32
2017-09-01T05:58:09.102Z,98088.71
2017-09-01T05:58:40.768Z,98084.45
2017-09-01T05:59:12.481Z,98078.92
2017-09-01T05:59:44.182Z,98081.89
2017-09-01T06:00:15.775Z,98083.17
2017-09-01T06:00:47.550Z,98076.36
2017-09-01T06:01:19.280Z,98077.64
2017-09-01T06:01:50.894Z,98071.67
2017-09-01T06:02:22.535Z,98072.95
2017-09-01T06:02:54.925Z,98074.23
2017-09-01T06:03:26.784Z,98078.07
2017-09-01T06:03:58.382Z,98074.23
2017-09-01T06:04:30.018Z,98086.59
2017-09-01T06:05:01.631Z,98080.20
2017-09-01T06:05:33.290Z,98094.25
2017-09-01T06:06:04.911Z,98084.03
2017-09-01T06:06:36.888Z,98089.57
2017-09-01T06:07:08.548Z,98086.59
2017-09-01T06:07:40.186Z,98090.00
2017-09-01T06:08:11.770Z,98089.57
2017-09-01T06:08:43.505Z,98091.70
2017-09-01T06:09:15.082Z,98088.73
2017-09-01T06:09:46.740Z,98090.01
2017-09-01T06:10:18.498Z,98087.88
2017-09-01T06:10:50.329Z,98085.79
2017-09-01T06:11:22.319Z,98081.48
2017-09-01T06:11:53.938Z,98081.95
2017-09-01T06:12:25.526Z,98073.82
2017-09-01T06:12:57.226Z,98078.13
2017-09-01T06:13:28.964Z,98075.16
2017-09-01T06:14:00.913Z,98073.86
2017-09-01T06:14:32.778Z,98074.28